Time;durP1;ratioP1;P1;durP2;ratioP2;P2;SDS_P1;SDS_P2;PMS_P1;PMS_P2;Temp;Humidity;BMP_temperature;BMP_pressure;BME280_temperature;BME280_humidity;BME280_pressure;Samples;Min_cycle;Max_cycle;Signal;HPM_P1;HPM_P2
2022/03/02 00:01:09;;;;;;;44.50;19.17;;;;;;;;;;5102022;27;20119;-73
2022/03/02 00:03:35;;;;;;;44.30;18.98;;;;;;;;;;5099132;28;20092;-73
2022/03/02 00:06:00;;;;;;;42.75;19.55;;;;;;;;;;5103161;27;20020;-73
2022/03/02 00:08:26;;;;;;;41.25;20.30;;;;;;;;;;5098617;27;20138;-73
2022/03/02 00:10:51;;;;;;;43.00;18.92;;;;;;;;;;5093564;28;20066;-73
2022/03/02 00:13:17;;;;;;;39.05;18.70;;;;;;;;;;5102693;27;20067;-73
2022/03/02 00:15:42;;;;;;;40.83;18.50;;;;;;;;;;5106095;27;20062;-73
2022/03/02 00:18:08;;;;;;;37.42;18.35;;;;;;;;;;5105146;28;20421;-73
2022/03/02 00:20:33;;;;;;;42.10;18.65;;;;;;;;;;5103742;28;20080;-73
2022/03/02 00:22:58;;;;;;;49.15;19.67;;;;;;;;;;5101344;28;20067;-73
2022/03/02 00:25:24;;;;;;;44.33;19.52;;;;;;;;;;5096993;28;20032;-73
2022/03/02 00:27:49;;;;;;;42.67;19.15;;;;;;;;;;5102630;27;20058;-73
2022/03/02 00:30:15;;;;;;;42.47;18.65;;;;;;;;;;5099781;27;20081;-73
2022/03/02 00:32:40;;;;;;;42.15;18.80;;;;;;;;;;5100763;28;20016;-73
2022/03/02 00:35:06;;;;;;;40.85;18.05;;;;;;;;;;5099133;27;20037;-73
2022/03/02 00:37:31;;;;;;;39.67;19.00;;;;;;;;;;5094977;28;20108;-73
2022/03/02 00:39:57;;;;;;;44.60;19.45;;;;;;;;;;5104164;27;20039;-73
2022/03/02 00:42:22;;;;;;;42.45;19.67;;;;;;;;;;5104882;27;20104;-72
2022/03/02 00:44:48;;;;;;;42.85;19.67;;;;;;;;;;5106792;28;20024;-73
2022/03/02 00:47:14;;;;;;;43.80;20.23;;;;;;;;;;5101152;27;20053;-73
2022/03/02 00:49:39;;;;;;;42.65;19.80;;;;;;;;;;5103947;28;20070;-73
2022/03/02 00:52:06;;;;;;;42.42;19.52;;;;;;;;;;5106061;27;20538;-73
2022/03/02 00:54:32;;;;;;;42.05;19.02;;;;;;;;;;5098769;28;20050;-73
2022/03/02 00:56:58;;;;;;;43.05;19.15;;;;;;;;;;5098975;28;20048;-73
2022/03/02 00:59:23;;;;;;;47.42;19.92;;;;;;;;;;5102422;28;20038;-73
2022/03/02 01:01:49;;;;;;;43.42;20.60;;;;;;;;;;5099253;28;20033;-73
2022/03/02 01:04:14;;;;;;;45.40;19.40;;;;;;;;;;5098795;27;20393;-73
2022/03/02 01:06:40;;;;;;;41.60;20.75;;;;;;;;;;5100826;27;20032;-73
2022/03/02 01:09:05;;;;;;;42.78;20.42;;;;;;;;;;5101647;27;20609;-73
2022/03/02 01:11:31;;;;;;;44.17;19.98;;;;;;;;;;5079095;28;20544;-73
2022/03/02 01:13:56;;;;;;;43.55;19.67;;;;;;;;;;5083138;28;20151;-73
2022/03/02 01:16:21;;;;;;;47.72;18.95;;;;;;;;;;5082378;28;20062;-73
2022/03/02 01:18:47;;;;;;;46.13;19.50;;;;;;;;;;5080378;28;20433;-73
2022/03/02 01:21:12;;;;;;;42.75;19.52;;;;;;;;;;5070414;28;20017;-73
2022/03/02 01:23:37;;;;;;;44.45;19.20;;;;;;;;;;5077676;28;20024;-73
2022/03/02 01:26:03;;;;;;;43.17;18.90;;;;;;;;;;5074615;28;20158;-73
2022/03/02 01:28:28;;;;;;;44.80;20.30;;;;;;;;;;5074082;28;20049;-73
2022/03/02 01:30:54;;;;;;;45.40;20.13;;;;;;;;;;5083766;27;20532;-73
2022/03/02 01:33:19;;;;;;;42.80;19.13;;;;;;;;;;5081574;27;20024;-73
2022/03/02 01:35:45;;;;;;;46.30;21.38;;;;;;;;;;5079767;28;20025;-73
2022/03/02 01:38:10;;;;;;;45.22;20.67;;;;;;;;;;5097541;27;20035;-73
2022/03/02 01:40:35;;;;;;;40.85;19.50;;;;;;;;;;5094348;27;20043;-73
2022/03/02 01:43:01;;;;;;;44.90;20.13;;;;;;;;;;5104768;27;20416;-73
2022/03/02 01:45:26;;;;;;;43.63;19.83;;;;;;;;;;5107935;27;20493;-73
2022/03/02 01:47:52;;;;;;;41.72;19.65;;;;;;;;;;5106338;28;20556;-73
2022/03/02 01:50:18;;;;;;;40.88;19.85;;;;;;;;;;5106376;27;20027;-73
2022/03/02 01:52:44;;;;;;;44.22;19.27;;;;;;;;;;5104845;27;20656;-73
2022/03/02 01:55:11;;;;;;;43.97;20.38;;;;;;;;;;5107160;27;20036;-73
2022/03/02 01:57:36;;;;;;;40.22;18.30;;;;;;;;;;5100873;27;20055;-73
2022/03/02 02:00:08;;;;;;;43.95;19.38;;;;;;;;;;5101605;28;20027;-73
2022/03/02 02:02:33;;;;;;;42.63;20.48;;;;;;;;;;5079731;28;20043;-73
2022/03/02 02:04:59;;;;;;;43.75;18.70;;;;;;;;;;5087201;28;20047;-73
2022/03/02 02:07:25;;;;;;;42.67;18.83;;;;;;;;;;5081326;28;20101;-73
2022/03/02 02:09:52;;;;;;;47.42;21.38;;;;;;;;;;5089079;28;20044;-73
2022/03/02 02:12:18;;;;;;;48.20;20.90;;;;;;;;;;5082033;28;20028;-73
2022/03/02 02:14:43;;;;;;;44.35;19.98;;;;;;;;;;5082891;28;20144;-73
2022/03/02 02:17:09;;;;;;;45.85;20.17;;;;;;;;;;5087743;28;20056;-73
2022/03/02 02:19:34;;;;;;;45.10;19.42;;;;;;;;;;5086659;28;20031;-73
2022/03/02 02:21:59;;;;;;;47.28;19.85;;;;;;;;;;5087509;27;20034;-73
2022/03/02 02:24:25;;;;;;;42.05;19.23;;;;;;;;;;5087149;28;20051;-73
2022/03/02 02:26:50;;;;;;;44.85;19.73;;;;;;;;;;5083660;28;20020;-73
2022/03/02 02:29:16;;;;;;;49.85;21.00;;;;;;;;;;5081284;28;20133;-73
2022/03/02 02:31:41;;;;;;;46.13;20.27;;;;;;;;;;5096809;27;20509;-73
2022/03/02 02:34:07;;;;;;;48.10;21.33;;;;;;;;;;5095837;27;20046;-73
2022/03/02 02:36:32;;;;;;;42.20;20.05;;;;;;;;;;5113438;27;20043;-73
2022/03/02 02:38:58;;;;;;;46.03;21.50;;;;;;;;;;5096868;28;20024;-73
2022/03/02 02:41:23;;;;;;;46.38;19.75;;;;;;;;;;5109292;27;20523;-73
2022/03/02 02:43:48;;;;;;;43.70;20.35;;;;;;;;;;5100628;27;20060;-73
2022/03/02 02:46:14;;;;;;;45.05;20.10;;;;;;;;;;5104543;27;20031;-73
2022/03/02 02:48:40;;;;;;;44.22;21.30;;;;;;;;;;5103064;27;20042;-73
2022/03/02 02:51:06;;;;;;;40.75;20.00;;;;;;;;;;5099584;27;20771;-73
2022/03/02 02:53:31;;;;;;;53.92;21.27;;;;;;;;;;5102431;28;20023;-73
2022/03/02 02:55:57;;;;;;;43.95;20.10;;;;;;;;;;5101293;28;20411;-73
2022/03/02 02:58:22;;;;;;;43.83;20.58;;;;;;;;;;5104890;27;20393;-73
2022/03/02 03:00:50;;;;;;;47.05;21.35;;;;;;;;;;5096239;27;20028;-73
2022/03/02 03:03:17;;;;;;;45.45;20.92;;;;;;;;;;5083208;28;20268;-73
2022/03/02 03:05:44;;;;;;;44.25;19.83;;;;;;;;;;5083532;28;20038;-73
2022/03/02 03:08:11;;;;;;;42.97;19.75;;;;;;;;;;5085603;28;20055;-73
2022/03/02 03:10:39;;;;;;;45.88;20.45;;;;;;;;;;5086527;27;20090;-73
2022/03/02 03:13:05;;;;;;;44.38;19.38;;;;;;;;;;5093777;28;20023;-73
2022/03/02 03:15:30;;;;;;;42.00;20.40;;;;;;;;;;5106327;27;20066;-73
2022/03/02 03:17:56;;;;;;;48.75;20.58;;;;;;;;;;5106723;28;20051;-73
2022/03/02 03:20:25;;;;;;;50.78;20.08;;;;;;;;;;5083766;27;20047;-73
2022/03/02 03:22:51;;;;;;;43.40;20.85;;;;;;;;;;5084753;28;20059;-73
2022/03/02 03:25:17;;;;;;;47.08;20.05;;;;;;;;;;5095217;28;20036;-73
2022/03/02 03:27:43;;;;;;;48.38;20.13;;;;;;;;;;5100770;27;20369;-73
2022/03/02 03:30:10;;;;;;;45.15;20.33;;;;;;;;;;5107269;27;20030;-73
2022/03/02 03:32:36;;;;;;;43.88;19.60;;;;;;;;;;5104847;27;20020;-73
2022/03/02 03:35:03;;;;;;;46.00;20.30;;;;;;;;;;5101694;27;20062;-73
2022/03/02 03:37:29;;;;;;;46.97;20.88;;;;;;;;;;5099828;27;20036;-73
2022/03/02 03:39:55;;;;;;;41.28;19.42;;;;;;;;;;5101406;27;20129;-73
2022/03/02 03:42:21;;;;;;;44.35;20.38;;;;;;;;;;5100248;27;20159;-73
2022/03/02 03:44:46;;;;;;;44.88;19.38;;;;;;;;;;5109523;27;20288;-73
2022/03/02 03:47:11;;;;;;;43.40;20.67;;;;;;;;;;5093700;27;20036;-73
2022/03/02 03:49:37;;;;;;;45.20;20.13;;;;;;;;;;5103331;27;20063;-73
2022/03/02 03:52:03;;;;;;;43.55;19.90;;;;;;;;;;5100329;27;20397;-73
2022/03/02 03:54:28;;;;;;;51.13;20.00;;;;;;;;;;5102561;27;20043;-73
2022/03/02 03:56:53;;;;;;;44.17;18.90;;;;;;;;;;5100555;27;20468;-73
2022/03/02 03:59:19;;;;;;;40.20;18.08;;;;;;;;;;5102929;27;20078;-73
2022/03/02 04:01:44;;;;;;;40.10;18.55;;;;;;;;;;5100493;28;20032;-73
2022/03/02 04:04:10;;;;;;;40.55;18.00;;;;;;;;;;5095613;27;20032;-72
2022/03/02 04:06:35;;;;;;;42.50;19.10;;;;;;;;;;5090486;28;20040;-73
2022/03/02 04:09:02;;;;;;;42.70;18.73;;;;;;;;;;5124340;27;20068;-73
2022/03/02 04:11:28;;;;;;;36.33;17.15;;;;;;;;;;5079859;28;20040;-73
2022/03/02 04:13:53;;;;;;;41.85;17.80;;;;;;;;;;5098085;28;20031;-73
2022/03/02 04:16:19;;;;;;;38.38;18.45;;;;;;;;;;5100523;28;20429;-73
2022/03/02 04:18:44;;;;;;;38.78;18.10;;;;;;;;;;5099037;27;20047;-73
2022/03/02 04:21:10;;;;;;;42.80;18.35;;;;;;;;;;5080248;28;20027;-73
2022/03/02 04:23:35;;;;;;;39.35;17.63;;;;;;;;;;5084569;28;20671;-73
2022/03/02 04:26:01;;;;;;;42.30;17.92;;;;;;;;;;5085363;28;20093;-73
2022/03/02 04:28:29;;;;;;;40.25;17.73;;;;;;;;;;5091473;28;20075;-73
2022/03/02 04:30:54;;;;;;;41.63;18.02;;;;;;;;;;5085737;28;20512;-73
2022/03/02 04:33:20;;;;;;;40.95;17.67;;;;;;;;;;5098527;28;20015;-73
2022/03/02 04:35:45;;;;;;;42.00;17.20;;;;;;;;;;5109278;28;20572;-73
2022/03/02 04:38:10;;;;;;;46.05;18.10;;;;;;;;;;5106721;27;20107;-73
2022/03/02 04:40:36;;;;;;;42.45;18.30;;;;;;;;;;5086499;27;20067;-73
2022/03/02 04:43:02;;;;;;;39.50;18.52;;;;;;;;;;5079975;28;20043;-73
2022/03/02 04:45:27;;;;;;;43.72;17.90;;;;;;;;;;5083818;28;20032;-73
2022/03/02 04:47:54;;;;;;;42.58;18.02;;;;;;;;;;5079706;28;20021;-73
2022/03/02 04:50:21;;;;;;;39.22;18.13;;;;;;;;;;5084596;28;20078;-73
2022/03/02 04:52:48;;;;;;;42.22;16.70;;;;;;;;;;5078050;28;20100;-73
2022/03/02 04:55:14;;;;;;;45.15;18.33;;;;;;;;;;5082665;28;20036;-73
2022/03/02 04:57:43;;;;;;;37.17;17.60;;;;;;;;;;5084274;28;20119;-73
2022/03/02 05:00:13;;;;;;;40.63;18.13;;;;;;;;;;5080958;28;20031;-73
2022/03/02 05:02:39;;;;;;;37.55;18.00;;;;;;;;;;5081628;28;20424;-73
2022/03/02 05:05:06;;;;;;;45.10;17.88;;;;;;;;;;5084392;28;20111;-73
2022/03/02 05:07:31;;;;;;;43.55;17.45;;;;;;;;;;5083943;28;20099;-73
2022/03/02 05:09:56;;;;;;;42.15;18.88;;;;;;;;;;5088770;28;20048;-73
2022/03/02 05:12:22;;;;;;;45.08;18.17;;;;;;;;;;5078946;28;20673;-73
2022/03/02 05:14:49;;;;;;;36.03;16.65;;;;;;;;;;5090341;28;20032;-73
2022/03/02 05:17:15;;;;;;;39.50;17.65;;;;;;;;;;5087027;27;20028;-73
2022/03/02 05:19:40;;;;;;;41.83;17.67;;;;;;;;;;5087618;28;20035;-73
2022/03/02 05:22:05;;;;;;;37.17;17.80;;;;;;;;;;5099394;27;20405;-73
2022/03/02 05:24:31;;;;;;;35.42;16.65;;;;;;;;;;5109820;27;20480;-73
2022/03/02 05:26:57;;;;;;;40.13;16.92;;;;;;;;;;5099670;28;20031;-73
2022/03/02 05:29:22;;;;;;;44.13;18.00;;;;;;;;;;5111683;27;20028;-73
2022/03/02 05:31:47;;;;;;;40.72;17.55;;;;;;;;;;5102988;27;20036;-73
2022/03/02 05:34:13;;;;;;;40.00;18.02;;;;;;;;;;5111357;27;20039;-73
2022/03/02 05:36:38;;;;;;;41.25;17.80;;;;;;;;;;5103497;27;20035;-73
2022/03/02 05:39:03;;;;;;;37.72;17.23;;;;;;;;;;5110334;27;20015;-73
2022/03/02 05:41:29;;;;;;;42.85;17.92;;;;;;;;;;5104174;27;20028;-74
2022/03/02 05:43:54;;;;;;;39.22;17.13;;;;;;;;;;5116701;27;20046;-73
2022/03/02 05:46:19;;;;;;;40.03;17.30;;;;;;;;;;5109549;28;20530;-73
2022/03/02 05:48:45;;;;;;;33.90;16.15;;;;;;;;;;5108139;27;20475;-73
2022/03/02 05:51:10;;;;;;;36.22;17.42;;;;;;;;;;5106371;27;20497;-73
2022/03/02 05:53:36;;;;;;;38.78;17.75;;;;;;;;;;5110634;27;20028;-73
2022/03/02 05:56:01;;;;;;;39.08;17.15;;;;;;;;;;5109667;27;20121;-73
2022/03/02 05:58:26;;;;;;;37.42;17.65;;;;;;;;;;5108390;27;20043;-73
2022/03/02 06:00:52;;;;;;;40.25;17.13;;;;;;;;;;5096968;27;20037;-73
2022/03/02 06:03:17;;;;;;;39.22;17.10;;;;;;;;;;5107425;27;20023;-73
2022/03/02 06:05:42;;;;;;;39.50;15.55;;;;;;;;;;5103509;28;20020;-73
2022/03/02 06:08:09;;;;;;;37.33;16.95;;;;;;;;;;5107185;28;20027;-73
2022/03/02 06:10:36;;;;;;;42.08;17.85;;;;;;;;;;5089444;27;20052;-73
2022/03/02 06:13:02;;;;;;;41.05;17.40;;;;;;;;;;5088181;28;20104;-73
2022/03/02 06:15:27;;;;;;;35.65;17.23;;;;;;;;;;5087231;27;20028;-73
2022/03/02 06:17:53;;;;;;;37.17;16.63;;;;;;;;;;5087922;28;20024;-73
2022/03/02 06:20:18;;;;;;;40.35;16.75;;;;;;;;;;5085747;28;20132;-73
2022/03/02 06:22:44;;;;;;;37.97;17.23;;;;;;;;;;5083715;28;20036;-73
2022/03/02 06:25:11;;;;;;;37.65;15.95;;;;;;;;;;5080151;28;20032;-73
2022/03/02 06:27:38;;;;;;;37.85;16.67;;;;;;;;;;5085147;28;20045;-73
2022/03/02 06:30:05;;;;;;;37.58;16.38;;;;;;;;;;5085946;28;20023;-73
2022/03/02 06:32:31;;;;;;;37.45;16.20;;;;;;;;;;5104621;28;20052;-73
2022/03/02 06:34:58;;;;;;;40.38;16.83;;;;;;;;;;5107077;27;20118;-73
2022/03/02 06:37:24;;;;;;;39.83;16.58;;;;;;;;;;5094175;28;20072;-73
2022/03/02 06:39:49;;;;;;;39.70;17.30;;;;;;;;;;5097192;28;20469;-73
2022/03/02 06:42:22;;;;;;;45.53;16.05;;;;;;;;;;5106266;27;20027;-73
2022/03/02 06:45:04;;;;;;;41.33;16.23;;;;;;;;;;5107343;28;20051;-73
2022/03/02 06:47:36;;;;;;;43.75;17.08;;;;;;;;;;5093013;27;20078;-73
2022/03/02 06:50:04;;;;;;;40.97;15.70;;;;;;;;;;5072666;27;20840;-75
2022/03/02 06:52:44;;;;;;;41.05;16.15;;;;;;;;;;5079404;28;20047;-75
2022/03/02 06:55:12;;;;;;;41.47;16.17;;;;;;;;;;5091879;28;20048;-72
2022/03/02 06:57:39;;;;;;;38.85;14.30;;;;;;;;;;5046400;28;1100550;-74
2022/03/02 07:00:08;;;;;;;37.35;13.70;;;;;;;;;;5080939;28;20059;-74
2022/03/02 07:03:00;;;;;;;37.30;13.52;;;;;;;;;;5107736;27;20077;-75
2022/03/02 07:05:26;;;;;;;34.88;14.77;;;;;;;;;;5080038;28;20040;-74
2022/03/02 07:07:51;;;;;;;38.35;14.18;;;;;;;;;;5086030;28;20077;-74
2022/03/02 07:10:17;;;;;;;41.25;15.35;;;;;;;;;;5085685;28;20040;-75
2022/03/02 07:12:43;;;;;;;40.08;14.48;;;;;;;;;;5085726;28;20040;-74
2022/03/02 07:15:10;;;;;;;34.17;14.65;;;;;;;;;;5085698;28;20082;-74
2022/03/02 07:17:35;;;;;;;32.83;15.13;;;;;;;;;;5078295;28;20028;-74
2022/03/02 07:20:09;;;;;;;36.90;15.95;;;;;;;;;;5080997;28;20149;-74
2022/03/02 07:22:41;;;;;;;34.22;14.40;;;;;;;;;;5079671;28;20043;-75
2022/03/02 07:25:16;;;;;;;31.73;15.25;;;;;;;;;;5082100;28;20032;-75
2022/03/02 07:27:41;;;;;;;35.20;15.00;;;;;;;;;;5079980;28;20382;-72
2022/03/02 07:30:08;;;;;;;43.70;15.77;;;;;;;;;;5082000;28;20566;-75
2022/03/02 07:32:36;;;;;;;37.72;16.10;;;;;;;;;;5082325;28;20143;-76
2022/03/02 07:35:04;;;;;;;36.15;15.38;;;;;;;;;;5086329;28;20036;-76
2022/03/02 07:37:30;;;;;;;35.65;15.13;;;;;;;;;;5080035;28;20397;-76
2022/03/02 07:39:56;;;;;;;39.03;15.48;;;;;;;;;;5078260;28;20031;-77
2022/03/02 07:42:22;;;;;;;37.15;15.10;;;;;;;;;;5079054;28;20024;-77
2022/03/02 07:44:49;;;;;;;37.42;14.68;;;;;;;;;;5081554;28;20505;-76
2022/03/02 07:47:15;;;;;;;33.60;14.02;;;;;;;;;;5084412;28;20158;-76
2022/03/02 07:49:40;;;;;;;33.60;13.88;;;;;;;;;;5084298;28;20122;-75
2022/03/02 07:52:06;;;;;;;37.53;14.10;;;;;;;;;;5078280;28;20066;-75
2022/03/02 07:54:35;;;;;;;36.85;16.23;;;;;;;;;;5085103;28;20024;-76
2022/03/02 07:57:01;;;;;;;38.78;16.52;;;;;;;;;;5084833;28;20127;-76
2022/03/02 07:59:40;;;;;;;37.17;16.38;;;;;;;;;;5101359;28;20177;-78
2022/03/02 08:02:08;;;;;;;33.70;15.15;;;;;;;;;;5096866;27;20633;-79
2022/03/02 08:04:35;;;;;;;36.05;14.38;;;;;;;;;;5100983;27;20039;-80
2022/03/02 08:07:00;;;;;;;41.33;16.13;;;;;;;;;;5093382;27;20032;-76
2022/03/02 08:09:26;;;;;;;41.38;14.90;;;;;;;;;;5085144;28;20024;-77
2022/03/02 08:11:51;;;;;;;39.13;15.43;;;;;;;;;;5097914;28;20026;-76
2022/03/02 08:14:23;;;;;;;40.15;15.48;;;;;;;;;;5109850;27;20575;-77
2022/03/02 08:16:50;;;;;;;31.60;13.23;;;;;;;;;;5103003;27;20567;-79
2022/03/02 08:19:17;;;;;;;32.70;12.20;;;;;;;;;;5102180;28;20122;-77
2022/03/02 08:21:50;;;;;;;34.50;13.35;;;;;;;;;;5106623;27;20093;-77
2022/03/02 08:24:17;;;;;;;32.30;13.00;;;;;;;;;;5105341;27;20035;-78
2022/03/02 08:26:47;;;;;;;44.42;13.73;;;;;;;;;;5106454;28;20035;-75
2022/03/02 08:29:13;;;;;;;40.42;13.88;;;;;;;;;;5106107;27;20512;-78
2022/03/02 08:31:41;;;;;;;45.00;15.32;;;;;;;;;;5101322;27;20046;-74
2022/03/02 08:34:07;;;;;;;35.92;12.45;;;;;;;;;;5105358;27;20093;-73
2022/03/02 08:36:34;;;;;;;37.20;14.38;;;;;;;;;;5099162;27;20043;-72
2022/03/02 08:39:05;;;;;;;35.38;13.02;;;;;;;;;;5098327;28;20027;-73
2022/03/02 08:41:31;;;;;;;32.75;13.38;;;;;;;;;;5101344;27;20081;-73
2022/03/02 08:43:57;;;;;;;32.67;12.80;;;;;;;;;;5092668;28;20463;-72
2022/03/02 08:46:24;;;;;;;32.60;12.40;;;;;;;;;;5104253;28;20035;-73
2022/03/02 08:48:50;;;;;;;26.15;11.35;;;;;;;;;;5101671;28;20040;-72
2022/03/02 08:51:17;;;;;;;34.80;14.52;;;;;;;;;;5093329;28;20038;-73
2022/03/02 08:53:43;;;;;;;31.95;12.88;;;;;;;;;;5095845;28;20068;-73
2022/03/02 08:56:09;;;;;;;29.73;11.27;;;;;;;;;;5099022;28;20161;-72
2022/03/02 08:58:37;;;;;;;31.35;13.43;;;;;;;;;;5096488;28;20118;-72
2022/03/02 09:01:02;;;;;;;29.05;11.40;;;;;;;;;;5099774;28;20032;-73
2022/03/02 09:03:32;;;;;;;28.63;11.93;;;;;;;;;;5094348;27;20520;-73
2022/03/02 09:05:59;;;;;;;29.02;11.88;;;;;;;;;;5098724;28;20088;-72
2022/03/02 09:08:24;;;;;;;26.75;10.93;;;;;;;;;;5097384;27;20067;-73
2022/03/02 09:10:50;;;;;;;24.65;10.70;;;;;;;;;;5091643;27;20074;-73
2022/03/02 09:13:15;;;;;;;22.15;9.98;;;;;;;;;;5093973;28;20070;-74
2022/03/02 09:15:41;;;;;;;24.65;10.20;;;;;;;;;;5100467;27;20039;-76
2022/03/02 09:18:07;;;;;;;23.48;9.38;;;;;;;;;;5104187;28;20032;-74
2022/03/02 09:20:33;;;;;;;25.17;10.35;;;;;;;;;;5094334;28;20046;-74
2022/03/02 09:23:04;;;;;;;28.45;10.68;;;;;;;;;;5104011;27;20040;-73
2022/03/02 09:25:31;;;;;;;19.85;9.02;;;;;;;;;;5105576;27;20051;-73
2022/03/02 09:27:57;;;;;;;27.23;9.75;;;;;;;;;;5095805;27;20039;-73
2022/03/02 09:30:23;;;;;;;24.02;10.07;;;;;;;;;;5100656;28;20020;-73
2022/03/02 09:32:52;;;;;;;23.45;9.40;;;;;;;;;;5101328;28;20059;-72
2022/03/02 09:35:19;;;;;;;23.92;9.93;;;;;;;;;;5100677;27;20213;-72
2022/03/02 09:37:49;;;;;;;28.08;10.75;;;;;;;;;;5100131;28;20031;-73
2022/03/02 09:40:27;;;;;;;25.98;10.48;;;;;;;;;;5095266;27;20142;-74
2022/03/02 09:42:59;;;;;;;21.60;10.63;;;;;;;;;;5083421;27;20524;-73
2022/03/02 09:45:29;;;;;;;25.70;10.65;;;;;;;;;;5100446;27;20374;-73
2022/03/02 09:48:00;;;;;;;25.92;10.45;;;;;;;;;;5099484;28;20024;-73
2022/03/02 09:50:31;;;;;;;28.48;10.65;;;;;;;;;;5098788;27;20101;-73
2022/03/02 09:53:05;;;;;;;28.55;10.63;;;;;;;;;;5106184;27;20031;-73
2022/03/02 09:55:31;;;;;;;28.15;10.23;;;;;;;;;;5099719;27;20048;-73
2022/03/02 09:57:58;;;;;;;22.77;10.35;;;;;;;;;;5105196;27;20047;-79
2022/03/02 10:00:26;;;;;;;25.85;10.18;;;;;;;;;;5107040;27;20724;-74
2022/03/02 10:02:55;;;;;;;23.73;9.75;;;;;;;;;;5105381;28;20084;-72
2022/03/02 10:05:32;;;;;;;24.38;10.05;;;;;;;;;;5101519;28;20641;-70
2022/03/02 10:08:05;;;;;;;29.50;10.02;;;;;;;;;;5100396;27;20133;-76
2022/03/02 10:10:33;;;;;;;20.15;9.43;;;;;;;;;;5100832;27;20031;-78
2022/03/02 10:13:02;;;;;;;26.90;9.82;;;;;;;;;;5109055;27;20042;-73
2022/03/02 10:15:28;;;;;;;22.20;9.48;;;;;;;;;;5114513;27;20042;-72
2022/03/02 10:17:57;;;;;;;24.45;10.00;;;;;;;;;;5107761;28;20028;-76
2022/03/02 10:20:25;;;;;;;20.65;9.25;;;;;;;;;;5080953;27;20591;-71
2022/03/02 10:23:02;;;;;;;20.23;8.73;;;;;;;;;;5080938;27;20077;-73
2022/03/02 10:25:39;;;;;;;20.70;9.68;;;;;;;;;;5081164;28;20031;-74
2022/03/02 10:28:07;;;;;;;20.52;9.45;;;;;;;;;;5098102;28;20070;-74
2022/03/02 10:30:41;;;;;;;22.05;9.43;;;;;;;;;;5100488;27;20610;-75
2022/03/02 10:33:17;;;;;;;29.90;10.75;;;;;;;;;;5102135;27;20083;-73
2022/03/02 10:35:56;;;;;;;22.40;9.32;;;;;;;;;;5107345;28;20065;-76
2022/03/02 10:38:43;;;;;;;21.80;9.98;;;;;;;;;;5100686;27;20032;-76
2022/03/02 10:41:09;;;;;;;27.42;11.65;;;;;;;;;;5093728;27;20040;-77
2022/03/02 10:44:14;;;;;;;23.25;10.50;;;;;;;;;;5097327;27;20532;-76
2022/03/02 10:46:45;;;;;;;23.90;11.10;;;;;;;;;;5095534;27;20039;-76
2022/03/02 10:49:20;;;;;;;26.80;9.73;;;;;;;;;;5103258;27;20555;-74
2022/03/02 10:51:46;;;;;;;21.98;10.13;;;;;;;;;;5101351;27;20028;-75
2022/03/02 10:54:16;;;;;;;22.35;10.32;;;;;;;;;;5098563;28;20035;-81
2022/03/02 10:56:43;;;;;;;20.63;9.32;;;;;;;;;;5096483;28;20101;-76
2022/03/02 10:59:16;;;;;;;19.98;8.65;;;;;;;;;;5083486;28;20516;-74
2022/03/02 11:01:42;;;;;;;21.83;9.13;;;;;;;;;;5082163;27;20047;-75
2022/03/02 11:04:07;;;;;;;20.38;9.40;;;;;;;;;;5082672;28;20032;-80
2022/03/02 11:06:35;;;;;;;19.52;9.20;;;;;;;;;;5109666;27;20067;-79
2022/03/02 11:09:02;;;;;;;19.50;7.65;;;;;;;;;;5102777;27;20023;-77
2022/03/02 11:11:31;;;;;;;18.55;8.90;;;;;;;;;;5083858;28;20031;-77
2022/03/02 11:13:57;;;;;;;17.90;8.40;;;;;;;;;;5083249;28;20079;-76
2022/03/02 11:16:24;;;;;;;14.55;6.43;;;;;;;;;;5080683;28;20068;-77
2022/03/02 11:18:52;;;;;;;21.13;8.85;;;;;;;;;;5079391;28;20129;-77
2022/03/02 11:21:21;;;;;;;22.48;8.32;;;;;;;;;;5074553;28;20413;-77
2022/03/02 11:23:55;;;;;;;19.85;8.55;;;;;;;;;;5074312;28;20099;-75
2022/03/02 11:26:29;;;;;;;20.75;8.65;;;;;;;;;;5077372;28;20063;-76
2022/03/02 11:29:00;;;;;;;16.52;7.75;;;;;;;;;;5081991;28;20040;-77
2022/03/02 11:31:30;;;;;;;20.73;8.27;;;;;;;;;;5082194;28;20110;-75
2022/03/02 11:34:15;;;;;;;21.17;8.68;;;;;;;;;;5095808;27;20038;-76
2022/03/02 11:36:44;;;;;;;27.67;9.40;;;;;;;;;;5096436;27;20426;-78
2022/03/02 11:39:11;;;;;;;18.05;6.95;;;;;;;;;;5100190;28;20016;-74
2022/03/02 11:41:39;;;;;;;16.80;8.30;;;;;;;;;;5099410;27;20036;-75
2022/03/02 11:44:25;;;;;;;17.85;7.22;;;;;;;;;;5101510;27;20035;-76
2022/03/02 11:46:50;;;;;;;17.92;8.02;;;;;;;;;;5100048;28;20043;-76
2022/03/02 11:49:16;;;;;;;22.77;9.00;;;;;;;;;;5099050;27;20761;-76
2022/03/02 11:51:41;;;;;;;19.30;9.02;;;;;;;;;;5101698;27;20031;-76
2022/03/02 11:54:09;;;;;;;21.50;9.30;;;;;;;;;;5078257;28;20099;-75
2022/03/02 11:56:35;;;;;;;19.13;9.13;;;;;;;;;;5069426;28;20096;-76
2022/03/02 11:59:08;;;;;;;22.55;9.68;;;;;;;;;;5072270;27;20044;-77
2022/03/02 12:01:53;;;;;;;18.92;8.73;;;;;;;;;;5073654;28;20043;-77
2022/03/02 12:04:19;;;;;;;16.90;8.50;;;;;;;;;;5077076;28;20039;-76
2022/03/02 12:06:48;;;;;;;21.33;8.82;;;;;;;;;;5082642;27;20040;-77
2022/03/02 12:09:42;;;;;;;22.33;9.55;;;;;;;;;;5084695;28;20102;-76
2022/03/02 12:12:20;;;;;;;20.08;9.80;;;;;;;;;;5057956;28;20048;-77
2022/03/02 12:14:57;;;;;;;19.30;9.45;;;;;;;;;;5075794;28;20649;-76
2022/03/02 12:17:33;;;;;;;19.63;9.75;;;;;;;;;;5078594;28;20541;-73
2022/03/02 12:20:19;;;;;;;18.85;8.90;;;;;;;;;;5077491;28;20036;-76
2022/03/02 12:22:53;;;;;;;22.80;8.48;;;;;;;;;;5073857;28;20815;-77
2022/03/02 12:25:21;;;;;;;21.33;9.23;;;;;;;;;;5082409;28;20039;-75
2022/03/02 12:28:05;;;;;;;21.17;9.55;;;;;;;;;;5080638;28;20042;-76
2022/03/02 12:30:32;;;;;;;19.15;8.30;;;;;;;;;;5080711;28;20108;-75
2022/03/02 12:32:58;;;;;;;20.45;9.65;;;;;;;;;;5081338;28;20019;-74
2022/03/02 12:35:24;;;;;;;20.17;9.63;;;;;;;;;;5085576;28;20048;-74
2022/03/02 12:37:53;;;;;;;19.77;9.07;;;;;;;;;;5084583;28;20053;-75
2022/03/02 12:40:19;;;;;;;17.42;8.40;;;;;;;;;;5077477;28;20028;-76
2022/03/02 12:42:46;;;;;;;18.67;8.27;;;;;;;;;;5080421;28;20099;-75
2022/03/02 12:45:13;;;;;;;25.52;9.20;;;;;;;;;;5074383;28;20111;-74
2022/03/02 12:47:39;;;;;;;17.95;8.80;;;;;;;;;;5080630;28;20040;-75
2022/03/02 12:50:08;;;;;;;25.92;9.48;;;;;;;;;;5069111;28;20038;-76
2022/03/02 12:52:33;;;;;;;20.88;9.93;;;;;;;;;;5074383;27;20071;-76
2022/03/02 12:55:00;;;;;;;21.05;8.10;;;;;;;;;;5079825;27;20064;-75
2022/03/02 12:57:31;;;;;;;17.52;9.25;;;;;;;;;;5078881;27;20048;-78
2022/03/02 12:59:57;;;;;;;21.08;8.90;;;;;;;;;;5076218;28;20767;-75
2022/03/02 13:02:27;;;;;;;16.73;7.90;;;;;;;;;;5077285;28;20040;-78
2022/03/02 13:05:16;;;;;;;19.10;9.80;;;;;;;;;;5077602;27;20513;-75
2022/03/02 13:08:06;;;;;;;18.73;8.63;;;;;;;;;;5092063;27;20040;-73
2022/03/02 13:10:32;;;;;;;20.02;9.70;;;;;;;;;;5096741;28;20092;-77
2022/03/02 13:13:00;;;;;;;23.85;9.90;;;;;;;;;;5100234;28;20047;-77
2022/03/02 13:15:31;;;;;;;24.10;9.75;;;;;;;;;;5098683;27;20076;-77
2022/03/02 13:18:09;;;;;;;20.73;10.10;;;;;;;;;;5102503;28;20131;-74
2022/03/02 13:20:37;;;;;;;17.10;8.40;;;;;;;;;;5103511;27;20067;-72
2022/03/02 13:23:26;;;;;;;18.35;8.55;;;;;;;;;;5094288;28;20077;-72
2022/03/02 13:25:54;;;;;;;16.65;8.68;;;;;;;;;;5106966;27;20581;-72
2022/03/02 13:28:20;;;;;;;20.08;8.95;;;;;;;;;;5093905;27;20044;-69
2022/03/02 13:31:07;;;;;;;15.82;8.27;;;;;;;;;;5084887;28;20043;-71
2022/03/02 13:34:05;;;;;;;20.02;9.35;;;;;;;;;;5083196;28;20431;-70
2022/03/02 13:36:47;;;;;;;18.38;9.38;;;;;;;;;;5104188;27;20058;-78
2022/03/02 13:39:20;;;;;;;15.20;7.70;;;;;;;;;;5101913;28;20012;-74
2022/03/02 13:41:51;;;;;;;18.58;8.52;;;;;;;;;;5085358;28;20118;-76
2022/03/02 13:44:21;;;;;;;17.83;8.80;;;;;;;;;;5084056;28;20029;-73
2022/03/02 13:47:12;;;;;;;20.40;9.38;;;;;;;;;;5087694;28;20043;-77
2022/03/02 13:49:47;;;;;;;18.88;8.90;;;;;;;;;;5084884;27;20053;-74
2022/03/02 13:52:21;;;;;;;24.05;9.63;;;;;;;;;;5091483;27;20108;-78
2022/03/02 13:54:48;;;;;;;19.88;9.20;;;;;;;;;;5110117;27;20050;-74
2022/03/02 13:57:23;;;;;;;21.00;8.93;;;;;;;;;;5105313;27;20393;-73
2022/03/02 14:00:09;;;;;;;19.17;8.38;;;;;;;;;;5081870;28;20059;-74
2022/03/02 14:02:35;;;;;;;19.65;8.30;;;;;;;;;;5076346;28;20051;-72
2022/03/02 14:05:00;;;;;;;19.42;9.30;;;;;;;;;;5097339;28;20530;-72
2022/03/02 14:07:27;;;;;;;18.42;8.88;;;;;;;;;;5103000;28;20035;-74
2022/03/02 14:10:04;;;;;;;21.00;9.80;;;;;;;;;;5117735;27;20032;-73
2022/03/02 14:12:29;;;;;;;19.98;9.18;;;;;;;;;;5100220;27;20036;-73
2022/03/02 14:14:54;;;;;;;22.90;10.35;;;;;;;;;;5104702;27;20036;-75
2022/03/02 14:17:20;;;;;;;23.02;10.43;;;;;;;;;;5108476;27;20050;-73
2022/03/02 14:19:50;;;;;;;23.30;10.55;;;;;;;;;;5108340;27;20131;-74
2022/03/02 14:22:18;;;;;;;24.38;11.00;;;;;;;;;;5104250;27;20048;-75
2022/03/02 14:24:46;;;;;;;22.73;9.50;;;;;;;;;;5097196;28;20042;-75
2022/03/02 14:27:19;;;;;;;19.92;9.23;;;;;;;;;;5105521;28;20504;-73